createdAt,value
2018-07-16T00:03:08.638Z,18.50
2018-07-16T00:05:37.554Z,18.50
2018-07-16T00:08:06.547Z,18.50
2018-07-16T00:10:35.396Z,18.50
2018-07-16T00:15:33.037Z,18.50
2018-07-16T00:18:01.931Z,18.40
2018-07-16T00:20:30.767Z,18.50
2018-07-16T00:22:59.652Z,18.40
2018-07-16T00:25:28.479Z,18.40
2018-07-16T00:27:57.344Z,18.30
2018-07-16T00:30:26.197Z,18.30
2018-07-16T00:40:21.400Z,18.30
2018-07-16T00:42:50.257Z,18.30
2018-07-16T00:45:19.140Z,18.30
2018-07-16T00:47:48.023Z,18.30
2018-07-16T00:50:16.859Z,18.20
2018-07-16T00:52:45.734Z,18.20
2018-07-16T00:55:14.588Z,18.10
2018-07-16T01:00:12.236Z,18.10
2018-07-16T01:02:41.062Z,18.10
2018-07-16T01:05:09.912Z,18.00
2018-07-16T01:07:38.760Z,18.00
2018-07-16T01:10:07.626Z,17.90
2018-07-16T01:15:05.351Z,18.00
2018-07-16T01:17:34.382Z,18.00
2018-07-16T01:20:03.248Z,17.90
2018-07-16T01:22:32.164Z,18.00
2018-07-16T01:25:01.062Z,17.90
2018-07-16T01:27:30.184Z,17.90
2018-07-16T01:32:27.803Z,17.90
2018-07-16T01:34:56.688Z,17.90
2018-07-16T01:37:25.531Z,18.00
2018-07-16T01:39:54.393Z,18.00
2018-07-16T01:42:23.239Z,18.00
2018-07-16T01:44:52.191Z,18.00
2018-07-16T01:47:21.067Z,18.00
2018-07-16T01:49:49.912Z,18.00
2018-07-16T01:52:18.812Z,17.90
2018-07-16T01:54:47.668Z,17.90
2018-07-16T01:57:16.524Z,17.80
2018-07-16T01:59:45.403Z,17.80
2018-07-16T02:02:14.267Z,17.80
2018-07-16T02:04:43.164Z,17.80
2018-07-16T02:07:12.024Z,17.70
2018-07-16T02:09:40.863Z,17.70
2018-07-16T02:12:10.175Z,17.70
2018-07-16T02:14:39.038Z,17.70
2018-07-16T02:17:07.919Z,17.70
2018-07-16T02:19:36.779Z,17.70
2018-07-16T02:27:03.188Z,17.70
2018-07-16T02:29:32.099Z,17.70
2018-07-16T02:32:00.939Z,17.80
2018-07-16T02:34:29.808Z,17.80
2018-07-16T02:36:58.675Z,17.70
2018-07-16T02:39:27.528Z,17.60
2018-07-16T02:41:56.387Z,17.60
2018-07-16T02:44:25.280Z,17.70
2018-07-16T02:46:54.219Z,17.70
2018-07-16T02:49:23.068Z,17.70
2018-07-16T02:51:51.918Z,17.70
2018-07-16T02:56:49.597Z,17.70
2018-07-16T02:59:18.430Z,17.70
2018-07-16T03:01:47.347Z,17.70
2018-07-16T03:04:16.187Z,17.60
2018-07-16T03:06:45.355Z,17.60
2018-07-16T03:09:14.179Z,17.50
2018-07-16T03:11:43.027Z,17.50
2018-07-16T03:14:11.951Z,17.50
2018-07-16T03:19:09.568Z,17.50
2018-07-16T03:21:38.431Z,17.50
2018-07-16T03:24:07.320Z,17.50
2018-07-16T03:26:36.195Z,17.50
2018-07-16T03:29:05.069Z,17.40
2018-07-16T03:31:33.979Z,17.50
2018-07-16T03:34:02.876Z,17.40
2018-07-16T03:39:00.464Z,17.40
2018-07-16T03:46:26.836Z,17.40
2018-07-16T03:48:55.674Z,17.50
2018-07-16T03:51:24.540Z,17.60
2018-07-16T03:53:53.425Z,17.60
2018-07-16T03:56:22.291Z,17.60
2018-07-16T04:01:20.207Z,17.80
2018-07-16T04:03:49.107Z,17.70
2018-07-16T04:06:17.983Z,17.80
2018-07-16T04:08:46.867Z,17.80
2018-07-16T04:11:15.749Z,17.90
2018-07-16T04:16:14.180Z,18.00
2018-07-16T04:18:43.036Z,18.10
2018-07-16T04:21:11.895Z,18.10
2018-07-16T04:23:40.804Z,18.10
2018-07-16T04:26:09.688Z,18.10
2018-07-16T04:28:38.613Z,18.20
2018-07-16T04:31:07.495Z,18.20
2018-07-16T04:33:36.376Z,18.20
2018-07-16T04:36:05.332Z,18.30
2018-07-16T04:38:34.200Z,18.40
2018-07-16T04:41:03.064Z,18.30
2018-07-16T04:43:31.939Z,18.40
2018-07-16T04:46:01.089Z,18.30
2018-07-16T04:48:30.029Z,18.30
2018-07-16T04:50:59.107Z,18.30
2018-07-16T04:53:28.411Z,18.40
2018-07-16T04:55:57.330Z,18.50
2018-07-16T04:58:26.881Z,18.60
2018-07-16T05:00:56.004Z,18.60
2018-07-16T05:03:24.956Z,18.60
2018-07-16T05:05:53.872Z,18.70
2018-07-16T05:10:51.554Z,18.60
2018-07-16T05:15:49.253Z,18.60
2018-07-16T05:18:18.101Z,18.70
2018-07-16T05:20:47.209Z,18.70
2018-07-16T05:23:16.203Z,18.80
2018-07-16T05:25:45.064Z,18.80
2018-07-16T05:28:16.047Z,18.90
2018-07-16T05:30:45.679Z,18.90
2018-07-16T05:33:14.645Z,19.00
2018-07-16T05:40:42.461Z,19.10
2018-07-16T05:43:11.384Z,19.10
2018-07-16T05:45:40.971Z,19.10
2018-07-16T05:48:09.844Z,19.10
2018-07-16T05:50:38.691Z,19.10
2018-07-16T05:53:07.570Z,19.10
2018-07-16T05:55:36.523Z,19.10
2018-07-16T05:58:05.623Z,19.20
2018-07-16T06:03:03.217Z,19.30
2018-07-16T06:05:32.081Z,19.30
2018-07-16T06:08:02.929Z,19.40
2018-07-16T06:10:32.308Z,19.40
2018-07-16T06:15:30.789Z,19.50
2018-07-16T06:18:02.793Z,19.50
2018-07-16T06:20:33.763Z,19.50
2018-07-16T06:23:03.790Z,19.50
2018-07-16T06:25:34.094Z,19.60
2018-07-16T06:28:03.263Z,19.60
2018-07-16T06:30:32.577Z,19.70
2018-07-16T06:33:03.055Z,19.70
2018-07-16T06:35:32.808Z,19.60
2018-07-16T06:38:03.568Z,19.70
2018-07-16T06:41:38.901Z,19.80
2018-07-16T06:44:09.913Z,19.80
2018-07-16T06:46:39.450Z,19.80
2018-07-16T06:49:08.343Z,19.90
2018-07-16T06:51:37.192Z,19.90
2018-07-16T06:56:34.884Z,20.00
2018-07-16T06:59:03.827Z,20.10
2018-07-16T07:01:32.699Z,20.20
2018-07-16T07:04:01.556Z,20.20
2018-07-16T07:06:30.831Z,20.20
2018-07-16T07:08:59.699Z,20.30
2018-07-16T07:11:28.640Z,20.30
2018-07-16T07:13:57.544Z,20.40
2018-07-16T07:16:26.404Z,20.40
2018-07-16T07:23:53.409Z,20.60
2018-07-16T07:26:22.307Z,20.70
2018-07-16T07:28:51.184Z,20.70
2018-07-16T07:31:20.088Z,20.80
2018-07-16T07:33:48.958Z,20.80
2018-07-16T07:36:17.863Z,20.80
2018-07-16T07:38:46.999Z,20.90
2018-07-16T07:41:15.840Z,20.90
2018-07-16T07:43:44.720Z,20.90
2018-07-16T07:48:42.423Z,21.00
2018-07-16T07:51:11.291Z,21.10
2018-07-16T07:53:40.197Z,21.10
2018-07-16T07:56:09.084Z,21.20
2018-07-16T07:58:37.967Z,21.30
2018-07-16T08:01:07.551Z,21.40
2018-07-16T08:03:36.520Z,21.40
2018-07-16T08:06:06.546Z,21.40
2018-07-16T08:08:36.765Z,21.50
2018-07-16T08:11:06.260Z,21.50
2018-07-16T08:13:35.200Z,21.60
2018-07-16T08:16:04.224Z,21.70
2018-07-16T08:18:33.167Z,21.80
2018-07-16T08:21:02.120Z,21.90
2018-07-16T08:23:31.094Z,22.00
2018-07-16T08:26:00.385Z,22.10
2018-07-16T08:28:29.387Z,22.10
2018-07-16T08:30:58.301Z,22.20
2018-07-16T08:33:27.216Z,22.20
2018-07-16T08:35:56.135Z,22.20
2018-07-16T08:38:24.998Z,22.20
2018-07-16T08:40:53.936Z,22.30
2018-07-16T08:43:22.884Z,22.40
2018-07-16T08:48:20.511Z,22.50
2018-07-16T08:50:49.907Z,22.60
2018-07-16T08:55:47.667Z,22.90
2018-07-16T08:58:16.533Z,23.20
2018-07-16T09:00:45.419Z,23.40
2018-07-16T09:03:14.296Z,23.50
2018-07-16T09:05:43.227Z,23.60
2018-07-16T09:08:12.048Z,23.70
2018-07-16T09:10:40.861Z,23.70
2018-07-16T09:13:09.762Z,23.80
2018-07-16T09:15:38.644Z,23.80
2018-07-16T09:18:07.536Z,23.90
2018-07-16T09:20:36.420Z,23.90
2018-07-16T09:23:05.284Z,23.90
2018-07-16T09:25:34.257Z,23.90
2018-07-16T09:28:03.121Z,23.90
2018-07-16T09:30:32.003Z,23.90
2018-07-16T09:33:00.861Z,24.00
2018-07-16T09:35:29.739Z,24.00
2018-07-16T09:37:58.635Z,24.00
2018-07-16T09:40:27.582Z,24.10
2018-07-16T09:47:53.983Z,24.20
2018-07-16T09:50:22.880Z,24.20
2018-07-16T09:52:51.785Z,24.20
2018-07-16T09:55:20.682Z,24.30
2018-07-16T09:57:49.546Z,24.20
2018-07-16T10:00:22.952Z,24.20
2018-07-16T10:02:51.830Z,24.20
2018-07-16T10:05:20.696Z,24.30
2018-07-16T10:07:49.582Z,24.40
2018-07-16T10:10:18.447Z,24.40
2018-07-16T10:12:47.340Z,24.50
2018-07-16T10:15:16.311Z,24.50
2018-07-16T10:17:45.233Z,24.50
2018-07-16T10:20:14.131Z,24.60
2018-07-16T10:22:43.093Z,24.60
2018-07-16T10:25:12.009Z,24.60
2018-07-16T10:27:40.881Z,24.60
2018-07-16T10:30:09.763Z,24.60
2018-07-16T10:32:38.648Z,24.60
2018-07-16T10:35:07.540Z,24.60
2018-07-16T10:37:36.463Z,24.70
2018-07-16T10:40:05.424Z,24.70
2018-07-16T10:42:34.320Z,24.70
2018-07-16T10:45:03.184Z,24.60
2018-07-16T10:47:32.088Z,24.70
2018-07-16T10:50:00.938Z,24.70
2018-07-16T10:52:29.845Z,24.70
2018-07-16T10:54:58.743Z,24.70
2018-07-16T10:57:27.611Z,24.80
2018-07-16T10:59:56.529Z,24.80
2018-07-16T11:02:25.367Z,24.80
2018-07-16T11:04:54.215Z,24.90
2018-07-16T11:07:23.351Z,25.00
2018-07-16T11:09:52.191Z,25.00
2018-07-16T11:12:21.163Z,25.00
2018-07-16T11:14:50.112Z,24.90
2018-07-16T11:17:18.990Z,24.90
2018-07-16T11:19:47.860Z,25.00
2018-07-16T11:22:16.666Z,25.00
2018-07-16T11:24:45.539Z,25.10
2018-07-16T11:27:14.416Z,25.30
2018-07-16T11:29:43.236Z,25.30
2018-07-16T11:32:12.127Z,25.30
2018-07-16T11:34:41.007Z,25.40
2018-07-16T11:37:09.861Z,25.50
2018-07-16T11:39:38.740Z,25.40
2018-07-16T11:44:36.431Z,25.50
2018-07-16T11:47:05.385Z,25.50
2018-07-16T11:49:34.293Z,25.50
2018-07-16T11:52:03.171Z,25.60
2018-07-16T11:54:32.019Z,25.60
2018-07-16T11:57:00.942Z,25.70
2018-07-16T11:59:29.864Z,25.80
2018-07-16T12:04:27.532Z,25.90
2018-07-16T12:06:56.864Z,26.00
2018-07-16T12:09:25.765Z,26.30
2018-07-16T12:14:23.353Z,26.50
2018-07-16T12:16:52.223Z,26.40
2018-07-16T12:19:21.099Z,26.50
2018-07-16T12:21:49.982Z,26.60
2018-07-16T12:26:47.608Z,26.70
2018-07-16T12:29:16.494Z,26.60
2018-07-16T12:31:45.399Z,26.70
2018-07-16T12:34:14.270Z,26.80
2018-07-16T12:36:43.200Z,26.80
2018-07-16T12:39:12.045Z,26.90
2018-07-16T12:41:40.959Z,26.90
2018-07-16T12:44:09.804Z,27.10
2018-07-16T12:46:38.647Z,27.40
2018-07-16T12:49:07.521Z,27.50
2018-07-16T12:51:41.155Z,27.60
2018-07-16T12:54:10.094Z,27.60
2018-07-16T12:56:38.952Z,27.60
2018-07-16T12:59:07.816Z,27.70
2018-07-16T13:01:36.686Z,27.60
2018-07-16T13:04:05.548Z,27.60
2018-07-16T13:06:34.495Z,27.50
2018-07-16T13:09:04.184Z,27.50
2018-07-16T13:11:39.885Z,27.50
2018-07-16T13:14:08.735Z,27.40
2018-07-16T13:16:37.612Z,27.40
2018-07-16T13:19:06.472Z,27.50
2018-07-16T13:24:04.079Z,27.90
2018-07-16T13:26:32.945Z,28.30
2018-07-16T13:29:01.858Z,28.70
2018-07-16T13:31:30.719Z,28.90
2018-07-16T13:33:59.558Z,29.20
2018-07-16T13:36:28.516Z,29.30
2018-07-16T13:38:57.424Z,29.50
2018-07-16T13:41:26.304Z,29.50
2018-07-16T13:44:01.987Z,29.30
2018-07-16T13:46:30.994Z,29.30
2018-07-16T13:48:59.727Z,29.20
2018-07-16T13:51:28.656Z,29.20
2018-07-16T13:53:57.519Z,28.80
2018-07-16T13:56:26.396Z,28.60
2018-07-16T13:58:55.508Z,28.60
2018-07-16T14:01:26.154Z,28.60
2018-07-16T14:03:55.236Z,28.60
2018-07-16T14:06:24.172Z,28.50
2018-07-16T14:08:53.027Z,28.60
2018-07-16T14:11:22.661Z,28.40
2018-07-16T14:13:52.000Z,28.30
2018-07-16T14:16:21.276Z,28.20
2018-07-16T14:18:50.404Z,28.10
2018-07-16T14:21:19.328Z,28.10
2018-07-16T14:23:48.203Z,28.10
2018-07-16T14:26:17.086Z,28.00
2018-07-16T14:28:45.945Z,27.90
2018-07-16T14:31:14.846Z,27.90
2018-07-16T14:33:43.707Z,27.90
2018-07-16T14:36:12.844Z,27.90
2018-07-16T14:38:41.720Z,27.80
2018-07-16T14:41:10.636Z,27.70
2018-07-16T14:43:39.547Z,27.60
2018-07-16T14:46:08.630Z,27.50
2018-07-16T14:48:37.507Z,27.50
2018-07-16T14:51:06.453Z,27.50
2018-07-16T14:53:35.365Z,27.40
2018-07-16T14:56:04.874Z,27.30
2018-07-16T14:58:33.731Z,27.20
2018-07-16T15:01:02.643Z,27.20
2018-07-16T15:06:00.251Z,27.10
2018-07-16T15:08:29.172Z,26.90
2018-07-16T15:10:58.008Z,26.80
2018-07-16T15:13:26.902Z,26.70
2018-07-16T15:15:55.780Z,26.60
2018-07-16T15:18:24.640Z,26.50
2018-07-16T15:20:53.996Z,26.40
2018-07-16T15:23:22.724Z,26.20
2018-07-16T15:25:51.827Z,26.20
2018-07-16T15:28:20.752Z,26.10
2018-07-16T15:30:49.720Z,26.00
2018-07-16T15:35:47.492Z,25.80
2018-07-16T15:38:16.377Z,25.60
2018-07-16T15:40:45.228Z,25.60
2018-07-16T15:43:14.079Z,25.50
2018-07-16T15:45:42.975Z,25.40
2018-07-16T15:48:11.882Z,25.30
2018-07-16T15:50:40.803Z,25.30
2018-07-16T15:53:09.649Z,25.20
2018-07-16T15:55:38.550Z,25.20
2018-07-16T15:58:07.424Z,25.10
2018-07-16T16:00:36.325Z,25.10
2018-07-16T16:03:05.348Z,25.10
2018-07-16T16:05:34.244Z,25.10
2018-07-16T16:08:03.251Z,25.10
2018-07-16T16:10:32.187Z,25.10
2018-07-16T16:13:01.101Z,25.10
2018-07-16T16:15:29.984Z,25.10
2018-07-16T16:17:58.851Z,25.00
2018-07-16T16:20:27.781Z,25.00
2018-07-16T16:22:56.699Z,24.80
2018-07-16T16:25:25.561Z,24.80
2018-07-16T16:27:54.449Z,24.80
2018-07-16T16:30:23.435Z,24.90
2018-07-16T16:32:52.417Z,24.90
2018-07-16T16:35:21.274Z,24.90
2018-07-16T16:37:50.224Z,24.90
2018-07-16T16:40:19.586Z,24.80
2018-07-16T16:42:48.476Z,24.80
2018-07-16T16:45:17.399Z,24.80
2018-07-16T16:47:46.581Z,24.80
2018-07-16T16:50:15.512Z,24.80
2018-07-16T16:52:44.491Z,24.80
2018-07-16T16:55:13.458Z,24.70
2018-07-16T16:57:42.344Z,24.70
2018-07-16T17:00:11.293Z,24.70
2018-07-16T17:02:41.420Z,24.60
2018-07-16T17:05:10.899Z,24.60
2018-07-16T17:07:40.126Z,24.60
2018-07-16T17:10:09.111Z,24.60
2018-07-16T17:12:38.444Z,24.60
2018-07-16T17:15:07.560Z,24.60
2018-07-16T17:17:36.752Z,24.50
2018-07-16T17:20:05.668Z,24.50
2018-07-16T17:22:35.044Z,24.50
2018-07-16T17:27:33.883Z,24.50
2018-07-16T17:30:03.052Z,24.50
2018-07-16T17:32:32.625Z,24.50
2018-07-16T17:35:01.945Z,24.40
2018-07-16T17:37:31.166Z,24.40
2018-07-16T17:40:00.198Z,24.40
2018-07-16T17:42:29.574Z,24.40
2018-07-16T17:44:59.035Z,24.40
2018-07-16T17:47:29.177Z,24.40
2018-07-16T17:49:59.473Z,24.40
2018-07-16T17:52:29.360Z,24.40
2018-07-16T17:54:58.641Z,24.30
2018-07-16T17:57:27.964Z,24.30
2018-07-16T17:59:56.904Z,24.20
2018-07-16T18:02:26.221Z,24.20
2018-07-16T18:04:55.116Z,24.10
2018-07-16T18:07:24.789Z,24.10
2018-07-16T18:09:54.132Z,24.00
2018-07-16T18:12:23.315Z,24.00
2018-07-16T18:14:52.672Z,23.90
2018-07-16T18:17:21.912Z,23.90
2018-07-16T18:19:51.072Z,23.90
2018-07-16T18:22:20.004Z,23.80
2018-07-16T18:24:48.876Z,23.80
2018-07-16T18:27:18.211Z,23.70
2018-07-16T18:29:47.432Z,23.70
2018-07-16T18:34:45.336Z,23.70
2018-07-16T18:37:14.627Z,23.60
2018-07-16T18:39:44.672Z,23.50
2018-07-16T18:42:15.322Z,23.50
2018-07-16T18:44:46.925Z,23.50
2018-07-16T18:52:14.084Z,23.30
2018-07-16T18:54:43.313Z,23.20
2018-07-16T18:59:42.532Z,23.10
2018-07-16T19:02:11.881Z,23.10
2018-07-16T19:04:40.974Z,23.00
2018-07-16T19:07:10.472Z,22.90
2018-07-16T19:09:39.466Z,22.90
2018-07-16T19:12:08.492Z,22.80
2018-07-16T19:14:37.896Z,22.70
2018-07-16T19:17:06.827Z,22.70
2018-07-16T19:19:35.700Z,22.70
2018-07-16T19:24:33.461Z,22.70
2018-07-16T19:27:02.987Z,22.60
2018-07-16T19:29:31.907Z,22.60
2018-07-16T19:32:00.831Z,22.50
2018-07-16T19:37:00.866Z,22.20
2018-07-16T19:39:31.253Z,22.10
2018-07-16T19:42:00.240Z,22.10
2018-07-16T19:44:29.695Z,22.10
2018-07-16T19:46:59.145Z,22.00
2018-07-16T19:49:28.428Z,21.80
2018-07-16T19:51:57.545Z,21.70
2018-07-16T19:54:26.498Z,21.50
2018-07-16T19:56:55.404Z,21.40
2018-07-16T19:59:24.344Z,21.60
2018-07-16T20:01:53.231Z,21.50
2018-07-16T20:04:22.160Z,21.60
2018-07-16T20:06:55.361Z,21.60
2018-07-16T20:09:25.238Z,21.70
2018-07-16T20:14:23.361Z,21.50
2018-07-16T20:16:52.379Z,21.60
2018-07-16T20:19:21.247Z,21.60
2018-07-16T20:21:50.219Z,21.70
2018-07-16T20:24:19.076Z,21.60
2018-07-16T20:29:17.208Z,21.60
2018-07-16T20:31:46.040Z,21.60
2018-07-16T20:34:14.908Z,21.60
2018-07-16T20:36:43.784Z,21.50
2018-07-16T20:39:12.726Z,21.50
2018-07-16T20:41:41.558Z,21.40
2018-07-16T20:44:10.472Z,21.30
2018-07-16T20:46:39.499Z,21.00
2018-07-16T20:51:37.124Z,20.90
2018-07-16T20:54:06.663Z,21.00
2018-07-16T20:56:35.567Z,21.10
2018-07-16T20:59:04.663Z,21.10
2018-07-16T21:01:33.583Z,21.10
2018-07-16T21:04:02.445Z,21.10
2018-07-16T21:06:31.316Z,21.10
2018-07-16T21:09:00.171Z,21.10
2018-07-16T21:11:29.011Z,21.00
2018-07-16T21:13:57.883Z,21.00
2018-07-16T21:16:26.791Z,21.00
2018-07-16T21:18:55.642Z,21.00
2018-07-16T21:21:24.647Z,20.90
2018-07-16T21:23:53.524Z,20.90
2018-07-16T21:26:22.427Z,20.90
2018-07-16T21:28:51.308Z,20.90
2018-07-16T21:31:20.167Z,20.80
2018-07-16T21:33:49.179Z,20.80
2018-07-16T21:38:46.749Z,20.80
2018-07-16T21:41:15.714Z,20.70
2018-07-16T21:43:44.550Z,20.70
2018-07-16T21:46:13.399Z,20.60
2018-07-16T21:48:42.266Z,20.60
2018-07-16T21:51:11.148Z,20.50
2018-07-16T21:53:40.168Z,20.50
2018-07-16T21:56:09.036Z,20.50
2018-07-16T21:58:37.962Z,20.50
2018-07-16T22:01:06.904Z,20.40
2018-07-16T22:03:35.787Z,20.40
2018-07-16T22:06:04.661Z,20.40
2018-07-16T22:08:33.550Z,20.30
2018-07-16T22:11:02.407Z,20.30
2018-07-16T22:13:31.248Z,20.30
2018-07-16T22:16:00.367Z,20.30
2018-07-16T22:18:29.229Z,20.20
2018-07-16T22:20:58.100Z,20.30
2018-07-16T22:23:26.979Z,20.20
2018-07-16T22:25:55.845Z,20.20
2018-07-16T22:28:24.742Z,20.20
2018-07-16T22:33:22.299Z,20.20
2018-07-16T22:35:51.167Z,20.20
2018-07-16T22:38:20.000Z,20.20
2018-07-16T22:40:48.927Z,20.10
2018-07-16T22:43:17.760Z,20.10
2018-07-16T22:45:46.616Z,20.10
2018-07-16T22:48:15.552Z,20.10
2018-07-16T22:53:13.188Z,20.00
2018-07-16T22:55:42.023Z,20.00
2018-07-16T23:00:39.684Z,19.90
2018-07-16T23:03:08.564Z,19.90
2018-07-16T23:05:37.404Z,19.90
2018-07-16T23:08:06.296Z,19.90
2018-07-16T23:10:35.242Z,19.90
2018-07-16T23:13:04.136Z,19.80
2018-07-16T23:15:32.979Z,19.80
2018-07-16T23:18:01.831Z,19.70
2018-07-16T23:22:59.684Z,19.70
2018-07-16T23:25:28.535Z,19.60
2018-07-16T23:27:57.452Z,19.60
2018-07-16T23:30:26.339Z,19.60
2018-07-16T23:32:55.182Z,19.40
2018-07-16T23:35:24.056Z,19.30
2018-07-16T23:37:52.930Z,19.40
2018-07-16T23:40:21.803Z,19.50
2018-07-16T23:42:50.644Z,19.50
2018-07-16T23:47:48.268Z,19.30
2018-07-16T23:50:17.194Z,19.40
2018-07-16T23:52:46.039Z,19.40
2018-07-16T23:55:14.867Z,19.40
2018-07-16T23:57:43.708Z,19.40
